Flight Track Log - Related Links

Times and Time Zones

All times are in EDT time to prevent confusion due to time zone crossing. See the DAL1283 flight status page for this flight to view local times or setup timezone preferences in your user account.

Time Position Orientation Groundspeed Altitude Reporting Facility
EDT Latitude Longitude Course Direction KTS MPH feet Rate Location/Type
Sat 12:10:29 PM 42.1994 -83.3717 275° West 174 200 1,200  Level Cleveland Center
Sat 12:10:47 PM 42.1881 -83.3842 219° Southwest 177 204 1,900 1,215 Climbing Cleveland Center
Sat 12:11:48 PM 42.1514 -83.4494 233° Southwest 257 296 2,800 1,200 Climbing Cleveland Center
Sat 12:12:07 PM 42.1397 -83.4694 232° Southwest 248 285 3,500 2,852 Climbing Cleveland Center
Sat 12:12:49 PM 42.1525 -83.5397 284° West 272 313 5,700 2,852 Climbing Cleveland Center
Sat 12:13:00 PM 42.2384 -83.8236 292° West  Level Estimated
Sat 12:13:08 PM 42.1628 -83.5656 298° West 268 308 6,400  Level Cleveland Center
Sat 12:13:49 PM 42.1917 -83.6300 301° West 276 318 8,200 2,459 Climbing Cleveland Center
Sat 12:14:00 PM 42.2467 -83.9804 270° West  Level Estimated
Sat 12:14:09 PM 42.2019 -83.6553 299° West 277 319 8,900  Level Cleveland Center
Sat 12:14:50 PM 42.2319 -83.7261 300° West 290 334 10,200 1,548 Climbing Cleveland Center
Sat 12:15:00 PM 42.2547 -84.1372 275° West  Level Estimated
Sat 12:15:11 PM 42.2422 -83.7508 299° West 288 331 10,500  Level Cleveland Center
Sat 12:16:12 PM 42.2872 -83.8581 300° West 326 375 12,000 1,659 Climbing Cleveland Center
Sat 12:17:14 PM 42.3344 -83.9717 299° West 345 397 13,900 2,195 Climbing Cleveland Center
Sat 12:18:15 PM 42.3819 -84.0833 300° West 343 395 16,500 2,049 Climbing Cleveland Center
Sat 12:19:17 PM 42.4272 -84.1972 298° West 345 397 18,100 1,268 Climbing Cleveland Center
Sat 12:20:18 PM 42.4317 -84.3294 273° West 353 406 19,100 1,512 Climbing Cleveland Center
Sat 12:21:20 PM 42.4347 -84.4683 272° West 368 423 21,200 2,000 Climbing Cleveland Center
Sat 12:22:21 PM 42.4397 -84.6281 272° West 356 410 23,200 1,561 Climbing Cleveland Center
Sat 12:23:23 PM 42.4433 -84.7525 272° West 362 417 24,400 1,268 Climbing Cleveland Center
Sat 12:24:24 PM 42.4467 -84.8922 272° West 370 426 25,800 1,268 Climbing Cleveland Center
Sat 12:25:26 PM 42.4492 -85.0314 271° West 371 427 27,000 1,220 Climbing Cleveland Center
Sat 12:26:27 PM 42.4364 -85.1989 264° West 374 430 28,300 1,073 Climbing Cleveland Center
Sat 12:27:29 PM 42.4197 -85.3383 261° West 376 433 29,200 774 Climbing Cleveland Center
Sat 12:28:31 PM 42.4011 -85.4797 260° West 380 437 29,900 585 Climbing Cleveland Center
Sat 12:29:32 PM 42.3817 -85.6247 260° West 391 450 30,400 537 Climbing Cleveland Center
Sat 12:30:34 PM 42.3617 -85.7742 260° West 401 461 31,000 871 Climbing Cleveland Center
Sat 12:31:36 PM 42.3394 -85.9222 259° West 401 461 32,200 927 Climbing Cleveland Center
Sat 12:32:37 PM 42.3181 -86.0789 260° West 394 453 32,900 579 Climbing Cleveland Center
Sat 12:34:01 PM 42.2897 -86.2847 260° West 400 460 33,600 411 Climbing Chicago Center
Sat 12:35:03 PM 42.2706 -86.4317 260° West 402 463 33,900 194 Climbing Chicago Center
Sat 12:36:05 PM 42.2533 -86.5825 261° West 407 468 34,000 48 Climbing Chicago Center
Sat 12:37:07 PM 42.2531 -86.7322 270° West 408 470 34,000  Level Chicago Center
Sat 12:38:08 PM 42.2631 -86.9189 274° West 417 480 34,000  Level Chicago Center
Sat 12:39:10 PM 42.2692 -87.0706 273° West 410 472 34,000  Level Chicago Center
Sat 12:40:12 PM 42.2758 -87.2206 273° West 404 465 34,000  Level Chicago Center
Sat 12:41:14 PM 42.2831 -87.3719 274° West 407 468 34,000  Level Chicago Center
Sat 12:42:16 PM 42.2900 -87.5225 274° West 407 468 34,000  Level Chicago Center
Sat 12:43:17 PM 42.2978 -87.7033 273° West 406 467 34,000  Level Chicago Center
Sat 12:44:19 PM 42.3047 -87.8525 274° West 403 464 34,000  Level Chicago Center
Sat 12:45:21 PM 42.3106 -88.0036 273° West 405 466 34,000  Level Chicago Center
Sat 12:46:23 PM 42.3169 -88.1533 273° West 403 464 34,000  Level Chicago Center
Sat 12:47:24 PM 42.3222 -88.3008 273° West 399 459 34,000  Level Chicago Center
Sat 12:48:26 PM 42.3292 -88.4803 273° West 401 461 34,000  Level Chicago Center
Sat 12:49:28 PM 42.3328 -88.6050 272° West 398 458 34,000  Level Chicago Center
Sat 12:50:30 PM 42.3397 -88.7839 273° West 396 456 34,000  Level Chicago Center
Sat 12:51:31 PM 42.3442 -88.9333 272° West 398 458 34,000  Level Chicago Center
Sat 12:52:33 PM 42.3489 -89.0839 272° West 400 460 34,000  Level Chicago Center
Sat 12:53:35 PM 42.3536 -89.2369 272° West 406 467 34,000  Level Chicago Center
Sat 12:54:37 PM 42.3589 -89.3894 273° West 405 466 34,000  Level Chicago Center
Sat 12:55:39 PM 42.3633 -89.5428 272° West 409 471 34,000  Level Chicago Center
Sat 12:56:40 PM 42.3661 -89.6964 271° West 410 472 34,000  Level Chicago Center
Sat 12:57:42 PM 42.3711 -89.8808 272° West 410 472 34,000  Level Chicago Center
Sat 12:58:44 PM 42.3750 -90.0222 272° West 406 467 34,000  Level Chicago Center
Sat 12:59:46 PM 42.3783 -90.1711 272° West 402 463 34,000  Level Chicago Center
Sat 01:00:47 PM 42.3808 -90.3211 271° West 402 463 34,000  Level Chicago Center
Sat 01:01:49 PM 42.3850 -90.4719 272° West 404 465 34,000  Level Chicago Center
Sat 01:02:51 PM 42.3889 -90.6533 272° West 405 466 34,000  Level Chicago Center
Sat 01:03:53 PM 42.3925 -90.8050 272° West 406 467 34,000  Level Chicago Center
Sat 01:04:54 PM 42.3933 -90.9572 270° West 407 468 34,000  Level Chicago Center
Sat 01:05:56 PM 42.3956 -91.1094 271° West 408 470 34,000  Level Chicago Center
Sat 01:06:57 PM 42.3969 -91.2639 271° West 410 472 34,000  Level Chicago Center
Sat 01:07:59 PM 42.3989 -91.4219 271° West 417 480 34,000 48 Level Chicago Center
Sat 01:09:01 PM 42.4000 -91.5792 271° West 418 481 34,100  Climbing Chicago Center
Sat 01:10:02 PM 42.4022 -91.7678 271° West 419 482 34,000 -49 Descending Chicago Center
Sat 01:11:04 PM 42.4028 -91.9236 270° West 417 480 34,000  Level Chicago Center
Sat 01:12:05 PM 42.4031 -92.0775 270° West 414 476 34,000  Level Chicago Center
Sat 01:13:07 PM 42.4036 -92.2306 270° West 411 473 34,000  Level Chicago Center
Sat 01:14:09 PM 42.4044 -92.3828 270° West 409 471 34,000  Level Chicago Center
Sat 01:15:10 PM 42.4047 -92.5336 270° West 405 466 34,000  Level Chicago Center
Sat 01:16:12 PM 42.4047 -92.6856 270° West 405 466 34,000  Level Chicago Center
Sat 01:17:13 PM 42.4050 -92.8669 270° West 404 465 34,000  Level Chicago Center
Sat 01:18:15 PM 42.4047 -93.0181 270° West 405 466 34,000  Level Chicago Center
Sat 01:19:17 PM 42.4033 -93.1700 269° West 407 468 34,000  Level Chicago Center
Sat 01:19:53 PM 42.4042 -93.2603 271° West 406 467 34,000  Level Minneapolis Center
Sat 01:20:55 PM 42.4031 -93.4111 269° West 405 466 34,000  Level Minneapolis Center
Sat 01:21:57 PM 42.4031 -93.5628 270° West 407 468 34,000  Level Minneapolis Center
Sat 01:22:59 PM 42.4011 -93.7464 269° West 408 470 34,000  Level Minneapolis Center
Sat 01:24:01 PM 42.3981 -93.9003 269° West 414 476 34,000  Level Minneapolis Center
Sat 01:25:02 PM 42.3967 -94.0544 269° West 411 473 34,000  Level Minneapolis Center
Sat 01:26:04 PM 42.3950 -94.2061 269° West 407 468 34,000  Level Minneapolis Center
Sat 01:27:06 PM 42.3944 -94.3764 270° West 403 464 34,000  Level Minneapolis Center
Sat 01:28:08 PM 42.3919 -94.5264 269° West 400 460 34,000  Level Minneapolis Center
Sat 01:29:10 PM 42.3883 -94.6736 268° West 394 453 34,000  Level Minneapolis Center
Sat 01:30:12 PM 42.3858 -94.8225 269° West 396 456 34,000  Level Minneapolis Center
Sat 01:31:13 PM 42.3833 -94.9728 269° West 399 459 34,000  Level Minneapolis Center
Sat 01:32:15 PM 42.3797 -95.1233 268° West 400 460 34,000  Level Minneapolis Center
Sat 01:33:17 PM 42.3758 -95.3050 268° West 404 465 34,000  Level Minneapolis Center
Sat 01:34:19 PM 42.3717 -95.4525 268° West 397 457 34,000  Level Minneapolis Center
Sat 01:35:20 PM 42.3683 -95.6075 268° West 406 467 34,000  Level Minneapolis Center
Sat 01:36:22 PM 42.3644 -95.7594 268° West 407 468 34,000  Level Minneapolis Center
Sat 01:37:24 PM 42.3600 -95.9111 268° West 406 467 34,000  Level Minneapolis Center
Sat 01:38:26 PM 42.3556 -96.0606 268° West 401 461 34,000  Level Minneapolis Center
Sat 01:39:27 PM 42.3508 -96.2394 268° West 399 459 34,000  Level Minneapolis Center
Sat 01:40:29 PM 42.3458 -96.3878 267° West 398 458 34,000  Level Minneapolis Center
Sat 01:41:31 PM 42.3403 -96.5369 267° West 398 458 34,000  Level Minneapolis Center
Sat 01:42:33 PM 42.3356 -96.6878 268° West 402 463 34,000  Level Minneapolis Center
Sat 01:43:34 PM 42.3292 -96.8375 267° West 400 460 34,000  Level Minneapolis Center
Sat 01:44:36 PM 42.3236 -96.9867 267° West 401 461 34,000  Level Minneapolis Center
Sat 01:45:38 PM 42.3186 -97.1383 267° West 404 465 34,000  Level Minneapolis Center
Sat 01:46:39 PM 42.3108 -97.3244 267° West 412 474 34,000  Level Minneapolis Center
Sat 01:47:41 PM 42.3050 -97.4783 267° West 412 474 34,000  Level Minneapolis Center
Sat 01:48:43 PM 42.2978 -97.6336 266° West 414 476 34,000  Level Minneapolis Center
Sat 01:49:45 PM 42.2917 -97.7886 267° West 414 476 34,000  Level Minneapolis Center
Sat 01:50:46 PM 42.2836 -97.9375 266° West 416 479 34,000 49 Level Minneapolis Center
Sat 01:51:48 PM 42.2756 -98.1294 267° West 424 488 34,100  Climbing Minneapolis Center
Sat 01:52:50 PM 42.2672 -98.2900 266° West 428 493 34,000 -49 Descending Minneapolis Center
Sat 01:53:51 PM 42.2600 -98.4489 267° West 426 490 34,000  Level Minneapolis Center
Sat 01:54:53 PM 42.2522 -98.6072 266° West 425 489 34,000  Level Minneapolis Center
Sat 01:55:55 PM 42.2439 -98.7603 266° West 415 478 34,000  Level Minneapolis Center
Sat 01:56:56 PM 42.2361 -98.9167 266° West 417 480 34,000  Level Minneapolis Center
Sat 01:57:58 PM 42.2272 -99.0717 266° West 416 479 34,000  Level Minneapolis Center
Sat 01:59:00 PM 42.2164 -99.2578 266° West 416 479 34,000 -47 Level Minneapolis Center
Sat 02:00:07 PM 42.2072 -99.4117 265° West 414 476 33,900  Descending Minneapolis Center
Sat 02:01:09 PM 42.1983 -99.5681 266° West 417 480 34,000 49 Climbing Minneapolis Center
Sat 02:02:10 PM 42.1883 -99.7258 265° West 421 484 34,000  Level Minneapolis Center
Sat 02:03:12 PM 42.1775 -99.9172 266° West 425 489 34,000  Level Minneapolis Center
Sat 02:04:14 PM 42.1661 -100.0831 265° West 436 502 34,000 49 Level Minneapolis Center
Sat 02:05:15 PM 42.1544 -100.2478 265° West 441 507 34,100  Climbing Minneapolis Center
Sat 02:06:17 PM 42.1439 -100.4150 265° West 445 512 34,000 -49 Descending Minneapolis Center
Sat 02:07:18 PM 42.1322 -100.5794 265° West 443 510 34,000 -634 Level Minneapolis Center
Sat 02:08:20 PM 42.1203 -100.7422 264° West 440 506 32,700 -916 Descending Minneapolis Center
Sat 02:09:29 PM 42.1075 -100.9333 265° West 417 480 32,000 -321 Descending Denver Center
Sat 02:10:31 PM 42.0958 -101.0872 264° West 428 493 32,000  Level Denver Center
Sat 02:11:33 PM 42.0836 -101.2611 265° West 420 483 32,000  Level Denver Center
Sat 02:12:35 PM 42.0722 -101.4122 264° West 424 488 32,000  Level Denver Center
Sat 02:13:36 PM 42.0575 -101.5892 264° West 428 493 32,000  Level Denver Center
Sat 02:14:38 PM 42.0456 -101.7428 264° West 432 497 32,000  Level Denver Center
Sat 02:15:40 PM 42.0319 -101.9197 264° West 427 491 32,000  Level Denver Center
Sat 02:16:41 PM 42.0189 -102.0750 264° West 436 502 32,000  Level Denver Center
Sat 02:17:43 PM 42.0036 -102.2547 264° West 441 507 32,000 48 Level Denver Center
Sat 02:18:45 PM 41.9892 -102.4119 263° West 444 511 32,100  Climbing Denver Center
Sat 02:19:46 PM 41.9775 -102.5672 264° West 436 502 32,000 -49 Descending Denver Center
Sat 02:20:48 PM 41.9611 -102.7500 263° West 440 506 32,000 48 Level Denver Center
Sat 02:21:50 PM 41.9467 -102.9058 263° West 440 506 32,100  Climbing Denver Center
Sat 02:22:52 PM 41.9306 -103.0858 263° West 435 501 32,000 -49 Descending Denver Center
Sat 02:23:53 PM 41.9161 -103.2411 263° West 436 502 32,000  Level Denver Center
Sat 02:24:55 PM 41.8997 -103.4181 263° West 431 496 32,000  Level Denver Center
Sat 02:25:56 PM 41.8728 -103.5728 257° West 439 505 32,000  Level Denver Center
Sat 02:26:58 PM 41.8353 -103.7281 252° West 451 519 32,000  Level Denver Center
Sat 02:28:00 PM 41.7911 -103.9092 252° West 457 526 32,000  Level Denver Center
Sat 02:29:01 PM 41.7542 -104.0619 252° West 453 521 32,000  Level Denver Center
Sat 02:30:03 PM 41.7108 -104.2411 252° West 451 519 32,000  Level Denver Center
Sat 02:31:05 PM 41.6739 -104.3939 252° West 449 517 32,000  Level Denver Center
Sat 02:32:06 PM 41.6353 -104.5472 251° West 453 521 32,000  Level Denver Center
Sat 02:33:08 PM 41.5906 -104.7278 252° West 457 526 32,000  Level Denver Center
Sat 02:34:10 PM 41.5519 -104.8836 252° West 460 529 32,000  Level Denver Center
Sat 02:35:11 PM 41.5075 -105.0614 252° West 454 522 32,000  Level Denver Center
Sat 02:36:13 PM 41.4678 -105.2142 251° West 454 522 32,000  Level Denver Center
Sat 02:37:14 PM 41.4294 -105.3656 251° West 452 520 32,000 -49 Level Denver Center
Sat 02:38:16 PM 41.3833 -105.5450 251° West 456 525 31,900  Descending Denver Center
Sat 02:39:18 PM 41.3422 -105.7031 251° West 467 537 32,000 98 Climbing Denver Center
Sat 02:40:19 PM 41.2950 -105.8928 252° West 479 551 32,100 49 Climbing Denver Center
Sat 02:41:21 PM 41.2544 -106.0547 252° West 483 556 32,100 -49 Level Denver Center
Sat 02:42:22 PM 41.2103 -106.2297 252° West 484 557 32,000 -49 Descending Denver Center
Sat 02:43:24 PM 41.1697 -106.3908 252° West 483 556 32,000  Level Denver Center
Sat 02:44:26 PM 41.1208 -106.5825 251° West 490 564 32,000  Level Denver Center
Sat 02:45:27 PM 41.0783 -106.7456 251° West 490 564 32,000  Level Denver Center
Sat 02:46:29 PM 41.0297 -106.9381 252° West 493 567 32,000  Level Denver Center
Sat 02:47:31 PM 40.9881 -107.1022 251° West 493 567 32,000  Level Denver Center
Sat 02:48:32 PM 40.9381 -107.2942 251° West 494 568 32,000  Level Denver Center
Sat 02:49:34 PM 40.8944 -107.4575 251° West 494 568 32,000  Level Denver Center
Sat 02:50:35 PM 40.8519 -107.6206 251° West 491 565 32,000  Level Denver Center
Sat 02:51:37 PM 40.8011 -107.8100 251° West 490 564 32,000  Level Denver Center
Sat 02:52:39 PM 40.7569 -107.9725 250° West 491 565 32,000  Level Denver Center
Sat 02:53:40 PM 40.7097 -108.1461 250° West 490 564 32,000  Level Denver Center
Sat 02:54:42 PM 40.6586 -108.3331 250° West 489 563 32,000  Level Denver Center
Sat 02:55:43 PM 40.6142 -108.4956 250° West 493 567 32,000  Level Denver Center
Sat 02:56:19 PM 40.5864 -108.5936 250° West 490 564 32,000  Level Salt Lake Center
Sat 02:57:21 PM 40.5350 -108.7819 250° West 489 563 32,000  Level Salt Lake Center
Sat 02:58:22 PM 40.4889 -108.9475 250° West 486 559 32,000  Level Salt Lake Center
Sat 02:59:24 PM 40.4428 -109.1075 249° West 491 565 32,000  Level Salt Lake Center
Sat 03:00:26 PM 40.3903 -109.2942 250° West 490 564 32,000  Level Salt Lake Center
Sat 03:01:27 PM 40.3442 -109.4536 249° West 491 565 32,000  Level Salt Lake Center
Sat 03:02:29 PM 40.2917 -109.6406 250° West 490 564 32,000  Level Salt Lake Center
Sat 03:03:31 PM 40.2525 -109.8028 252° West 492 566 32,000  Level Salt Lake Center
Sat 03:04:33 PM 40.2083 -109.9922 253° West 490 564 32,000  Level Salt Lake Center
Sat 03:05:34 PM 40.1692 -110.1519 252° West 486 559 32,000  Level Salt Lake Center
Sat 03:06:36 PM 40.1308 -110.3108 253° West 483 556 32,000  Level Salt Lake Center
Sat 03:07:37 PM 40.0864 -110.4975 253° West 483 556 32,000  Level Salt Lake Center
Sat 03:08:39 PM 40.0461 -110.6575 252° West 484 557 32,000  Level Salt Lake Center
Sat 03:09:41 PM 39.9981 -110.8444 252° West 486 559 32,000  Level Salt Lake Center
Sat 03:10:42 PM 39.9583 -111.0036 252° West 484 557 32,000  Level Salt Lake Center
Sat 03:11:45 PM 39.9117 -111.1903 252° West 485 558 32,000  Level Salt Lake Center
Sat 03:12:46 PM 39.8697 -111.3497 251° West 488 562 32,000  Level Salt Lake Center
Sat 03:13:47 PM 39.8281 -111.5089 251° West 487 560 32,000  Level Salt Lake Center
Sat 03:14:49 PM 39.7836 -111.6811 251° West 485 558 32,000  Level Salt Lake Center
Sat 03:15:51 PM 39.7408 -111.8478 252° West 486 559 32,000  Level Salt Lake Center
Sat 03:16:52 PM 39.6975 -112.0131 251° West 484 557 32,000  Level Salt Lake Center
Sat 03:17:54 PM 39.6453 -112.2128 251° West 484 557 32,000  Level Salt Lake Center
Sat 03:18:56 PM 39.6019 -112.3781 251° West 485 558 32,000  Level Salt Lake Center
Sat 03:19:58 PM 39.5589 -112.5419 251° West 482 555 32,000  Level Salt Lake Center
Sat 03:20:59 PM 39.5147 -112.7014 250° West 481 554 32,000  Level Salt Lake Center
Sat 03:22:01 PM 39.4714 -112.8597 251° West 473 544 32,000  Level Salt Lake Center
Sat 03:23:03 PM 39.4275 -113.0203 251° West 475 547 32,000  Level Salt Lake Center
Sat 03:24:04 PM 39.3736 -113.2167 251° West 482 555 32,000  Level Salt Lake Center
Sat 03:25:06 PM 39.3286 -113.3775 250° West 481 554 32,000  Level Salt Lake Center
Sat 03:26:09 PM 39.2844 -113.5383 251° West 478 550 32,000  Level Salt Lake Center
Sat 03:27:10 PM 39.2397 -113.6983 250° West 478 550 32,000  Level Salt Lake Center
Sat 03:28:11 PM 39.1950 -113.8578 250° West 476 548 32,000  Level Salt Lake Center
Sat 03:29:13 PM 39.1494 -114.0167 250° West 475 547 32,000  Level Salt Lake Center
Sat 03:30:15 PM 39.1036 -114.1764 250° West 477 549 32,000  Level Salt Lake Center
Sat 03:31:17 PM 39.0508 -114.3614 250° West 468 539 32,000  Level Salt Lake Center
Sat 03:32:19 PM 39.0081 -114.5106 250° West 454 522 32,000  Level Salt Lake Center
Sat 03:33:20 PM 38.9644 -114.6625 250° West 454 522 32,000  Level Salt Lake Center
Sat 03:34:22 PM 38.9183 -114.8139 249° West 456 525 32,000  Level Salt Lake Center
Sat 03:35:24 PM 38.8761 -114.9633 250° West 451 519 32,000  Level Salt Lake Center
Sat 03:36:26 PM 38.8317 -115.1119 249° West 448 516 32,000  Level Salt Lake Center
Sat 03:37:27 PM 38.7772 -115.2919 249° West 452 520 32,000  Level Salt Lake Center
Sat 03:38:29 PM 38.7375 -115.4211 249° West 455 524 32,000  Level Salt Lake Center
Sat 03:39:31 PM 38.6842 -115.6003 249° West 450 518 32,000  Level Salt Lake Center
Sat 03:40:33 PM 38.6389 -115.7508 249° West 451 519 32,000  Level Salt Lake Center
Sat 03:41:35 PM 38.5925 -115.9006 248° West 453 521 32,000  Level Salt Lake Center
Sat 03:42:36 PM 38.5481 -116.0467 249° West 443 510 32,000  Level Salt Lake Center
Sat 03:43:38 PM 38.5019 -116.1953 248° West 449 517 32,000  Level Salt Lake Center
Sat 03:44:40 PM 38.4578 -116.3406 249° West 444 511 32,000  Level Salt Lake Center
Sat 03:45:41 PM 38.4117 -116.4856 248° West 441 507 32,000  Level Salt Lake Center
Sat 03:46:43 PM 38.3578 -116.6594 248° West 440 506 32,000  Level Salt Lake Center
Sat 03:47:45 PM 38.3122 -116.8044 248° West 441 507 32,000  Level Salt Lake Center
Sat 03:48:46 PM 38.2675 -116.9486 248° West 440 506 32,000  Level Salt Lake Center
Sat 03:49:48 PM 38.2219 -117.0925 248° West 440 506 32,000  Level Salt Lake Center
Sat 03:50:45 PM 38.1775 -117.2278 247° West 447 514 32,000  Level Oakland Center
Sat 03:51:46 PM 38.1319 -117.3722 248° West 444 511 32,000  Level Oakland Center
Sat 03:52:47 PM 38.0867 -117.5144 248° West 439 505 32,000  Level Oakland Center
Sat 03:53:51 PM 38.0397 -117.6586 248° West 441 507 32,000  Level Oakland Center
Sat 03:54:50 PM 37.9958 -117.8331 252° West 432 497 32,000  Level Oakland Center
Sat 03:55:52 PM 37.9803 -117.9828 263° West 429 494 32,000  Level Oakland Center
Sat 03:56:53 PM 37.9644 -118.1347 263° West 432 497 32,000  Level Oakland Center
Sat 03:57:54 PM 37.9483 -118.2903 263° West 442 509 32,000  Level Oakland Center
Sat 03:58:56 PM 37.9308 -118.4450 262° West 444 511 32,000  Level Oakland Center
Sat 03:59:57 PM 37.9136 -118.6000 262° West 443 510 32,000  Level Oakland Center
Sat 04:00:58 PM 37.8953 -118.7547 262° West 445 512 32,000  Level Oakland Center
Sat 04:01:59 PM 37.8808 -118.9114 263° West 447 514 32,000  Level Oakland Center
Sat 04:03:01 PM 37.8606 -119.0769 261° West 444 511 32,000  Level Oakland Center
Sat 04:04:02 PM 37.8411 -119.2331 261° West 449 517 32,000  Level Oakland Center
Sat 04:05:03 PM 37.8231 -119.3897 262° West 450 518 32,000  Level Oakland Center
Sat 04:06:05 PM 37.8042 -119.5525 262° West 466 536 32,000  Level Oakland Center
Sat 04:07:06 PM 37.7853 -119.7156 262° West 469 540 32,000  Level Oakland Center
Sat 04:08:07 PM 37.7650 -119.8775 261° West 466 536 32,000 -197 Level Oakland Center
Sat 04:09:08 PM 37.7453 -120.0406 261° West 468 539 31,600 -732 Descending Oakland Center
Sat 04:10:10 PM 37.7214 -120.2322 261° West 461 531 30,500 -1,024 Descending Oakland Center
Sat 04:11:11 PM 37.7006 -120.3936 261° West 463 533 29,500 -934 Descending Oakland Center
Sat 04:12:12 PM 37.6806 -120.5531 261° West 460 529 28,600 -1,366 Descending Oakland Center
Sat 04:13:14 PM 37.6608 -120.7072 261° West 448 516 26,700 -2,146 Descending Oakland Center
Sat 04:14:15 PM 37.6411 -120.8594 261° West 441 507 24,200 -2,459 Descending Oakland Center
Sat 04:15:16 PM 37.6219 -121.0036 261° West 428 493 21,700 -2,459 Descending Oakland Center
Sat 04:16:17 PM 37.6042 -121.1606 262° West 415 478 19,200 -2,488 Descending Oakland Center
Sat 04:17:19 PM 37.5889 -121.2953 262° West 395 455 16,600 -3,073 Descending Oakland Center
Sat 04:18:20 PM 37.5742 -121.4236 262° West 376 433 12,900 -2,803 Descending Oakland Center
Sat 04:19:21 PM 37.5561 -121.5486 260° West 364 419 10,900 -1,258 Descending Oakland Center
Sat 04:20:24 PM 37.5333 -121.6667 256° West 309 356 10,300 -1,073 Descending Northern Cal TRACON
Sat 04:21:24 PM 37.5167 -121.7667 258° West 302 348 8,700 -1,150 Descending Northern Cal TRACON
Sat 04:22:24 PM 37.5000 -121.8667 258° West 277 319 8,000 -950 Descending Northern Cal TRACON
Sat 04:23:24 PM 37.5000 -121.9500 270° West 251 289 6,800 -1,050 Descending Northern Cal TRACON
Sat 04:24:24 PM 37.5000 -122.0333 270° West 214 246 5,900 -1,300 Descending Northern Cal TRACON
Sat 04:25:24 PM 37.5333 -122.1000 302° West 205 236 4,200 -1,550 Descending Northern Cal TRACON
Sat 04:26:24 PM 37.5500 -122.1500 293° West 200 230 2,800 -1,250 Descending Northern Cal TRACON
Sat 04:27:24 PM 37.5667 -122.2167 288° West 203 234 1,700 -887 Descending Northern Cal TRACON
Sat 04:28:19 PM 37.5833 -122.2833 288° West 157 181 1,100 -574 Descending Northern Cal TRACON
Sat 04:29:19 PM 37.6000 -122.3167 302° West 148 170 600 -397 Descending Northern Cal TRACON
Sat 04:30:35 PM 37.6194 -122.3725 294° West 151 174 200 -316 Descending Oakland Center

Login

Don't have an account? Register now (free) for customized features, flight alerts, and more!